sensor_id;sensor_type;location;lat;lon;timestamp;P1;durP1;ratioP1;P2;durP2;ratioP2
21170;SDS011;10743;52.160;20.910;2023-02-28T00:01:40;168.60;;;59.23;;
21170;SDS011;10743;52.160;20.910;2023-02-28T00:04:07;177.70;;;60.47;;
21170;SDS011;10743;52.160;20.910;2023-02-28T00:06:35;168.30;;;58.67;;
21170;SDS011;10743;52.160;20.910;2023-02-28T00:09:02;169.40;;;57.70;;
21170;SDS011;10743;52.160;20.910;2023-02-28T00:11:29;171.97;;;57.33;;
21170;SDS011;10743;52.160;20.910;2023-02-28T00:13:57;164.33;;;57.90;;
21170;SDS011;10743;52.160;20.910;2023-02-28T00:16:24;229.07;;;125.37;;
21170;SDS011;10743;52.160;20.910;2023-02-28T00:18:51;156.97;;;56.10;;
21170;SDS011;10743;52.160;20.910;2023-02-28T00:21:19;173.63;;;57.27;;
21170;SDS011;10743;52.160;20.910;2023-02-28T00:23:47;179.00;;;58.23;;
21170;SDS011;10743;52.160;20.910;2023-02-28T00:26:15;187.70;;;64.10;;
21170;SDS011;10743;52.160;20.910;2023-02-28T00:28:45;205.10;;;68.87;;
21170;SDS011;10743;52.160;20.910;2023-02-28T00:31:12;203.03;;;69.80;;
21170;SDS011;10743;52.160;20.910;2023-02-28T00:33:40;194.63;;;64.93;;
21170;SDS011;10743;52.160;20.910;2023-02-28T00:36:09;192.47;;;64.77;;
21170;SDS011;10743;52.160;20.910;2023-02-28T00:38:37;187.13;;;64.77;;
21170;SDS011;10743;52.160;20.910;2023-02-28T00:41:06;191.50;;;63.40;;
21170;SDS011;10743;52.160;20.910;2023-02-28T00:43:34;198.00;;;63.90;;
21170;SDS011;10743;52.160;20.910;2023-02-28T00:46:04;190.33;;;62.97;;
21170;SDS011;10743;52.160;20.910;2023-02-28T00:48:32;317.20;;;90.23;;
21170;SDS011;10743;52.160;20.910;2023-02-28T00:50:59;291.80;;;89.87;;
21170;SDS011;10743;52.160;20.910;2023-02-28T00:53:28;191.40;;;61.97;;
21170;SDS011;10743;52.160;20.910;2023-02-28T00:55:56;190.97;;;64.00;;
21170;SDS011;10743;52.160;20.910;2023-02-28T00:58:25;189.93;;;64.10;;
21170;SDS011;10743;52.160;20.910;2023-02-28T01:00:56;203.73;;;63.53;;
21170;SDS011;10743;52.160;20.910;2023-02-28T01:03:24;211.43;;;71.07;;
21170;SDS011;10743;52.160;20.910;2023-02-28T01:05:54;211.37;;;72.37;;
21170;SDS011;10743;52.160;20.910;2023-02-28T01:08:24;212.07;;;72.50;;
21170;SDS011;10743;52.160;20.910;2023-02-28T01:10:57;203.03;;;68.13;;
21170;SDS011;10743;52.160;20.910;2023-02-28T01:13:28;214.73;;;71.57;;
21170;SDS011;10743;52.160;20.910;2023-02-28T01:16:04;201.23;;;66.20;;
21170;SDS011;10743;52.160;20.910;2023-02-28T01:18:33;197.53;;;63.70;;
21170;SDS011;10743;52.160;20.910;2023-02-28T01:21:12;190.03;;;63.13;;
21170;SDS011;10743;52.160;20.910;2023-02-28T01:23:43;194.57;;;64.90;;
21170;SDS011;10743;52.160;20.910;2023-02-28T01:26:22;190.17;;;61.70;;
21170;SDS011;10743;52.160;20.910;2023-02-28T01:28:59;192.70;;;62.77;;
21170;SDS011;10743;52.160;20.910;2023-02-28T01:31:28;199.27;;;63.27;;
21170;SDS011;10743;52.160;20.910;2023-02-28T01:33:56;194.63;;;64.13;;
21170;SDS011;10743;52.160;20.910;2023-02-28T01:36:28;181.87;;;63.57;;
21170;SDS011;10743;52.160;20.910;2023-02-28T01:38:56;170.03;;;59.77;;
21170;SDS011;10743;52.160;20.910;2023-02-28T01:41:26;163.87;;;57.57;;
21170;SDS011;10743;52.160;20.910;2023-02-28T01:44:01;169.57;;;59.63;;
21170;SDS011;10743;52.160;20.910;2023-02-28T01:46:32;164.53;;;57.90;;
21170;SDS011;10743;52.160;20.910;2023-02-28T01:49:06;163.20;;;57.50;;
21170;SDS011;10743;52.160;20.910;2023-02-28T01:51:44;221.70;;;71.20;;
21170;SDS011;10743;52.160;20.910;2023-02-28T01:54:24;228.63;;;72.07;;
21170;SDS011;10743;52.160;20.910;2023-02-28T01:59:42;224.27;;;68.00;;
21170;SDS011;10743;52.160;20.910;2023-02-28T02:02:40;221.00;;;70.10;;
21170;SDS011;10743;52.160;20.910;2023-02-28T02:05:12;219.13;;;69.90;;
21170;SDS011;10743;52.160;20.910;2023-02-28T02:07:45;236.77;;;74.20;;
21170;SDS011;10743;52.160;20.910;2023-02-28T02:10:16;219.17;;;67.47;;
21170;SDS011;10743;52.160;20.910;2023-02-28T02:18:37;213.47;;;67.83;;
21170;SDS011;10743;52.160;20.910;2023-02-28T02:33:16;173.60;;;57.47;;
21170;SDS011;10743;52.160;20.910;2023-02-28T02:36:13;181.50;;;59.20;;
21170;SDS011;10743;52.160;20.910;2023-02-28T02:38:54;168.00;;;58.77;;
21170;SDS011;10743;52.160;20.910;2023-02-28T02:41:31;167.70;;;57.00;;
21170;SDS011;10743;52.160;20.910;2023-02-28T02:44:19;162.37;;;58.03;;
21170;SDS011;10743;52.160;20.910;2023-02-28T02:46:58;166.47;;;57.23;;
21170;SDS011;10743;52.160;20.910;2023-02-28T02:49:51;172.63;;;58.07;;
21170;SDS011;10743;52.160;20.910;2023-02-28T02:52:44;169.47;;;57.23;;
21170;SDS011;10743;52.160;20.910;2023-02-28T02:55:20;163.23;;;56.27;;
21170;SDS011;10743;52.160;20.910;2023-02-28T02:57:59;158.37;;;55.80;;
21170;SDS011;10743;52.160;20.910;2023-02-28T03:00:39;163.63;;;57.20;;
21170;SDS011;10743;52.160;20.910;2023-02-28T03:03:13;157.93;;;54.70;;
21170;SDS011;10743;52.160;20.910;2023-02-28T03:08:16;151.13;;;52.57;;
21170;SDS011;10743;52.160;20.910;2023-02-28T03:10:45;160.00;;;54.43;;
21170;SDS011;10743;52.160;20.910;2023-02-28T03:31:00;152.23;;;53.40;;
21170;SDS011;10743;52.160;20.910;2023-02-28T03:36:10;152.60;;;53.00;;
21170;SDS011;10743;52.160;20.910;2023-02-28T03:38:45;149.03;;;53.13;;
21170;SDS011;10743;52.160;20.910;2023-02-28T03:44:33;150.87;;;54.20;;
21170;SDS011;10743;52.160;20.910;2023-02-28T03:47:07;155.27;;;54.37;;
21170;SDS011;10743;52.160;20.910;2023-02-28T03:49:44;155.93;;;54.90;;
21170;SDS011;10743;52.160;20.910;2023-02-28T03:52:34;158.90;;;54.83;;
21170;SDS011;10743;52.160;20.910;2023-02-28T03:55:11;158.97;;;54.97;;
21170;SDS011;10743;52.160;20.910;2023-02-28T03:57:43;159.10;;;54.90;;
21170;SDS011;10743;52.160;20.910;2023-02-28T04:00:31;164.73;;;55.87;;
21170;SDS011;10743;52.160;20.910;2023-02-28T04:03:04;152.40;;;55.50;;
21170;SDS011;10743;52.160;20.910;2023-02-28T04:05:32;169.83;;;57.00;;
21170;SDS011;10743;52.160;20.910;2023-02-28T04:08:20;164.83;;;58.03;;
21170;SDS011;10743;52.160;20.910;2023-02-28T04:10:50;166.63;;;57.37;;
21170;SDS011;10743;52.160;20.910;2023-02-28T04:13:33;163.30;;;55.83;;
21170;SDS011;10743;52.160;20.910;2023-02-28T04:16:00;168.03;;;56.00;;
21170;SDS011;10743;52.160;20.910;2023-02-28T04:18:27;158.50;;;56.03;;
21170;SDS011;10743;52.160;20.910;2023-02-28T04:20:54;167.87;;;56.37;;
21170;SDS011;10743;52.160;20.910;2023-02-28T04:23:21;166.80;;;57.67;;
21170;SDS011;10743;52.160;20.910;2023-02-28T04:25:48;172.93;;;58.07;;
21170;SDS011;10743;52.160;20.910;2023-02-28T04:28:17;177.57;;;61.00;;
21170;SDS011;10743;52.160;20.910;2023-02-28T04:30:44;176.20;;;59.37;;
21170;SDS011;10743;52.160;20.910;2023-02-28T04:33:11;169.90;;;59.60;;
21170;SDS011;10743;52.160;20.910;2023-02-28T04:35:38;173.73;;;59.47;;
21170;SDS011;10743;52.160;20.910;2023-02-28T04:38:05;175.87;;;61.87;;
21170;SDS011;10743;52.160;20.910;2023-02-28T04:40:32;174.43;;;60.33;;
21170;SDS011;10743;52.160;20.910;2023-02-28T04:42:59;191.30;;;62.07;;
21170;SDS011;10743;52.160;20.910;2023-02-28T04:45:26;178.03;;;60.73;;
21170;SDS011;10743;52.160;20.910;2023-02-28T04:47:56;169.40;;;58.70;;
21170;SDS011;10743;52.160;20.910;2023-02-28T04:50:23;182.33;;;58.17;;
21170;SDS011;10743;52.160;20.910;2023-02-28T04:52:50;171.90;;;61.03;;
21170;SDS011;10743;52.160;20.910;2023-02-28T04:55:17;184.40;;;60.33;;
21170;SDS011;10743;52.160;20.910;2023-02-28T04:57:44;173.33;;;59.87;;
21170;SDS011;10743;52.160;20.910;2023-02-28T05:00:11;169.07;;;59.93;;
21170;SDS011;10743;52.160;20.910;2023-02-28T05:02:41;177.93;;;60.20;;
21170;SDS011;10743;52.160;20.910;2023-02-28T05:05:09;180.97;;;61.10;;
21170;SDS011;10743;52.160;20.910;2023-02-28T05:07:36;171.80;;;60.37;;
21170;SDS011;10743;52.160;20.910;2023-02-28T05:10:03;188.17;;;61.20;;
21170;SDS011;10743;52.160;20.910;2023-02-28T05:12:31;165.23;;;58.57;;
21170;SDS011;10743;52.160;20.910;2023-02-28T05:14:58;85.70;;;39.43;;
21170;SDS011;10743;52.160;20.910;2023-02-28T05:17:27;110.23;;;45.53;;
21170;SDS011;10743;52.160;20.910;2023-02-28T05:19:54;59.33;;;29.67;;
21170;SDS011;10743;52.160;20.910;2023-02-28T05:22:39;54.50;;;26.13;;
21170;SDS011;10743;52.160;20.910;2023-02-28T05:25:08;61.13;;;24.13;;
21170;SDS011;10743;52.160;20.910;2023-02-28T05:27:42;59.30;;;25.80;;
21170;SDS011;10743;52.160;20.910;2023-02-28T05:30:09;68.67;;;28.87;;
21170;SDS011;10743;52.160;20.910;2023-02-28T05:32:37;69.03;;;27.40;;
21170;SDS011;10743;52.160;20.910;2023-02-28T05:35:05;59.77;;;25.53;;
21170;SDS011;10743;52.160;20.910;2023-02-28T05:37:33;50.50;;;19.93;;
21170;SDS011;10743;52.160;20.910;2023-02-28T05:40:00;59.00;;;29.37;;
21170;SDS011;10743;52.160;20.910;2023-02-28T05:42:32;52.40;;;22.37;;
21170;SDS011;10743;52.160;20.910;2023-02-28T05:44:59;58.53;;;25.67;;
21170;SDS011;10743;52.160;20.910;2023-02-28T05:47:26;53.23;;;25.43;;
21170;SDS011;10743;52.160;20.910;2023-02-28T05:49:53;66.50;;;28.13;;
21170;SDS011;10743;52.160;20.910;2023-02-28T05:52:21;65.53;;;28.43;;
21170;SDS011;10743;52.160;20.910;2023-02-28T05:54:48;68.63;;;24.13;;
21170;SDS011;10743;52.160;20.910;2023-02-28T05:57:15;66.47;;;26.17;;
21170;SDS011;10743;52.160;20.910;2023-02-28T05:59:50;65.87;;;24.70;;
21170;SDS011;10743;52.160;20.910;2023-02-28T06:02:17;62.90;;;25.73;;
21170;SDS011;10743;52.160;20.910;2023-02-28T06:04:45;64.80;;;24.60;;
21170;SDS011;10743;52.160;20.910;2023-02-28T06:07:12;70.20;;;25.20;;
21170;SDS011;10743;52.160;20.910;2023-02-28T06:09:39;52.37;;;23.77;;
21170;SDS011;10743;52.160;20.910;2023-02-28T06:12:07;73.87;;;26.77;;
21170;SDS011;10743;52.160;20.910;2023-02-28T06:14:36;64.90;;;21.30;;
21170;SDS011;10743;52.160;20.910;2023-02-28T06:17:03;67.00;;;21.97;;
21170;SDS011;10743;52.160;20.910;2023-02-28T06:19:30;70.77;;;23.57;;
21170;SDS011;10743;52.160;20.910;2023-02-28T06:21:57;66.73;;;24.53;;
21170;SDS011;10743;52.160;20.910;2023-02-28T06:24:26;71.87;;;23.07;;
21170;SDS011;10743;52.160;20.910;2023-02-28T06:26:54;71.50;;;25.90;;
21170;SDS011;10743;52.160;20.910;2023-02-28T06:29:22;61.17;;;22.37;;
21170;SDS011;10743;52.160;20.910;2023-02-28T06:31:49;81.23;;;35.47;;
21170;SDS011;10743;52.160;20.910;2023-02-28T06:34:16;52.10;;;21.00;;
21170;SDS011;10743;52.160;20.910;2023-02-28T06:36:43;63.87;;;26.23;;
21170;SDS011;10743;52.160;20.910;2023-02-28T06:39:10;49.23;;;20.13;;
21170;SDS011;10743;52.160;20.910;2023-02-28T06:41:37;45.93;;;19.30;;
21170;SDS011;10743;52.160;20.910;2023-02-28T06:44:20;55.50;;;22.03;;
21170;SDS011;10743;52.160;20.910;2023-02-28T06:46:48;49.60;;;23.67;;
21170;SDS011;10743;52.160;20.910;2023-02-28T06:49:15;52.00;;;17.00;;
21170;SDS011;10743;52.160;20.910;2023-02-28T06:51:44;41.57;;;16.33;;
21170;SDS011;10743;52.160;20.910;2023-02-28T06:54:11;51.50;;;17.23;;
21170;SDS011;10743;52.160;20.910;2023-02-28T06:56:39;37.30;;;14.93;;
21170;SDS011;10743;52.160;20.910;2023-02-28T06:59:06;37.93;;;16.43;;
21170;SDS011;10743;52.160;20.910;2023-02-28T07:01:33;54.20;;;16.80;;
21170;SDS011;10743;52.160;20.910;2023-02-28T07:04:00;54.80;;;18.13;;
21170;SDS011;10743;52.160;20.910;2023-02-28T07:06:28;53.40;;;20.03;;
21170;SDS011;10743;52.160;20.910;2023-02-28T07:08:55;42.00;;;17.97;;
21170;SDS011;10743;52.160;20.910;2023-02-28T07:11:22;50.03;;;17.37;;
21170;SDS011;10743;52.160;20.910;2023-02-28T07:13:54;36.60;;;13.57;;
21170;SDS011;10743;52.160;20.910;2023-02-28T07:16:23;34.47;;;14.73;;
21170;SDS011;10743;52.160;20.910;2023-02-28T07:18:52;30.43;;;11.77;;
21170;SDS011;10743;52.160;20.910;2023-02-28T07:21:20;31.73;;;11.40;;
21170;SDS011;10743;52.160;20.910;2023-02-28T07:23:48;28.80;;;10.73;;
21170;SDS011;10743;52.160;20.910;2023-02-28T07:26:16;23.63;;;11.17;;
21170;SDS011;10743;52.160;20.910;2023-02-28T07:28:45;21.10;;;9.33;;
21170;SDS011;10743;52.160;20.910;2023-02-28T07:31:14;34.80;;;11.87;;
21170;SDS011;10743;52.160;20.910;2023-02-28T07:33:42;18.37;;;8.97;;
21170;SDS011;10743;52.160;20.910;2023-02-28T07:36:11;19.27;;;8.27;;
21170;SDS011;10743;52.160;20.910;2023-02-28T07:38:45;105.27;;;42.83;;
21170;SDS011;10743;52.160;20.910;2023-02-28T07:41:17;119.87;;;44.53;;
21170;SDS011;10743;52.160;20.910;2023-02-28T07:43:47;121.30;;;45.77;;
21170;SDS011;10743;52.160;20.910;2023-02-28T07:46:15;125.13;;;46.77;;
21170;SDS011;10743;52.160;20.910;2023-02-28T07:48:43;108.23;;;42.87;;
21170;SDS011;10743;52.160;20.910;2023-02-28T07:51:11;98.63;;;41.13;;
21170;SDS011;10743;52.160;20.910;2023-02-28T07:53:39;96.10;;;39.83;;
21170;SDS011;10743;52.160;20.910;2023-02-28T07:56:06;82.33;;;36.83;;
21170;SDS011;10743;52.160;20.910;2023-02-28T07:58:33;86.63;;;36.90;;
21170;SDS011;10743;52.160;20.910;2023-02-28T08:01:07;90.50;;;39.03;;
21170;SDS011;10743;52.160;20.910;2023-02-28T08:03:36;33.93;;;14.00;;
21170;SDS011;10743;52.160;20.910;2023-02-28T08:06:04;21.60;;;7.10;;
21170;SDS011;10743;52.160;20.910;2023-02-28T08:08:35;21.33;;;7.10;;
21170;SDS011;10743;52.160;20.910;2023-02-28T08:11:03;18.90;;;7.47;;
21170;SDS011;10743;52.160;20.910;2023-02-28T08:13:31;31.93;;;8.20;;
21170;SDS011;10743;52.160;20.910;2023-02-28T08:15:58;23.07;;;8.67;;
21170;SDS011;10743;52.160;20.910;2023-02-28T08:18:28;24.80;;;8.20;;
21170;SDS011;10743;52.160;20.910;2023-02-28T08:20:55;21.77;;;6.83;;
21170;SDS011;10743;52.160;20.910;2023-02-28T08:23:23;16.50;;;6.43;;
21170;SDS011;10743;52.160;20.910;2023-02-28T08:25:54;17.07;;;6.47;;
21170;SDS011;10743;52.160;20.910;2023-02-28T08:28:22;15.47;;;6.30;;
21170;SDS011;10743;52.160;20.910;2023-02-28T08:30:52;12.80;;;5.87;;
21170;SDS011;10743;52.160;20.910;2023-02-28T08:33:21;16.23;;;6.47;;
21170;SDS011;10743;52.160;20.910;2023-02-28T08:35:52;21.73;;;7.50;;
21170;SDS011;10743;52.160;20.910;2023-02-28T08:38:21;17.90;;;6.60;;
21170;SDS011;10743;52.160;20.910;2023-02-28T08:40:49;19.30;;;6.80;;
21170;SDS011;10743;52.160;20.910;2023-02-28T08:43:16;24.77;;;8.30;;
21170;SDS011;10743;52.160;20.910;2023-02-28T08:45:43;17.20;;;6.77;;
21170;SDS011;10743;52.160;20.910;2023-02-28T08:48:10;19.63;;;6.37;;
21170;SDS011;10743;52.160;20.910;2023-02-28T08:50:37;20.53;;;7.10;;
21170;SDS011;10743;52.160;20.910;2023-02-28T08:53:04;23.37;;;7.17;;
21170;SDS011;10743;52.160;20.910;2023-02-28T08:55:31;22.90;;;7.33;;
21170;SDS011;10743;52.160;20.910;2023-02-28T08:57:58;18.10;;;6.37;;
21170;SDS011;10743;52.160;20.910;2023-02-28T09:00:27;16.10;;;6.27;;
21170;SDS011;10743;52.160;20.910;2023-02-28T09:02:55;32.40;;;10.60;;
21170;SDS011;10743;52.160;20.910;2023-02-28T09:05:22;18.50;;;7.23;;
21170;SDS011;10743;52.160;20.910;2023-02-28T09:07:49;20.67;;;7.23;;
21170;SDS011;10743;52.160;20.910;2023-02-28T09:10:16;235.93;;;72.87;;
21170;SDS011;10743;52.160;20.910;2023-02-28T09:12:43;134.13;;;61.50;;
21170;SDS011;10743;52.160;20.910;2023-02-28T09:15:12;36.30;;;20.47;;
21170;SDS011;10743;52.160;20.910;2023-02-28T09:17:40;22.30;;;9.27;;
21170;SDS011;10743;52.160;20.910;2023-02-28T09:20:08;25.43;;;12.60;;
21170;SDS011;10743;52.160;20.910;2023-02-28T09:22:36;24.80;;;8.50;;
21170;SDS011;10743;52.160;20.910;2023-02-28T09:25:03;19.60;;;7.20;;
21170;SDS011;10743;52.160;20.910;2023-02-28T09:27:31;15.73;;;8.77;;
21170;SDS011;10743;52.160;20.910;2023-02-28T09:29:58;86.90;;;38.57;;
21170;SDS011;10743;52.160;20.910;2023-02-28T09:32:25;137.87;;;49.73;;
21170;SDS011;10743;52.160;20.910;2023-02-28T09:34:52;169.47;;;54.20;;
21170;SDS011;10743;52.160;20.910;2023-02-28T09:37:20;162.07;;;52.63;;
21170;SDS011;10743;52.160;20.910;2023-02-28T09:39:47;159.27;;;53.50;;
21170;SDS011;10743;52.160;20.910;2023-02-28T09:42:18;164.83;;;53.57;;
21170;SDS011;10743;52.160;20.910;2023-02-28T09:44:59;159.90;;;54.40;;
21170;SDS011;10743;52.160;20.910;2023-02-28T09:52:55;156.67;;;56.97;;
21170;SDS011;10743;52.160;20.910;2023-02-28T09:58:20;163.93;;;52.97;;
21170;SDS011;10743;52.160;20.910;2023-02-28T10:01:00;151.93;;;51.43;;
21170;SDS011;10743;52.160;20.910;2023-02-28T10:03:40;145.40;;;50.67;;
21170;SDS011;10743;52.160;20.910;2023-02-28T10:06:17;152.07;;;50.60;;
21170;SDS011;10743;52.160;20.910;2023-02-28T10:08:50;152.97;;;52.03;;
21170;SDS011;10743;52.160;20.910;2023-02-28T10:11:28;161.00;;;53.60;;
21170;SDS011;10743;52.160;20.910;2023-02-28T10:14:00;162.37;;;52.90;;
21170;SDS011;10743;52.160;20.910;2023-02-28T10:16:52;167.10;;;54.73;;
21170;SDS011;10743;52.160;20.910;2023-02-28T10:19:34;162.57;;;54.17;;
21170;SDS011;10743;52.160;20.910;2023-02-28T10:22:35;150.60;;;56.33;;
21170;SDS011;10743;52.160;20.910;2023-02-28T10:25:20;145.33;;;52.57;;
21170;SDS011;10743;52.160;20.910;2023-02-28T10:28:04;153.53;;;52.17;;
21170;SDS011;10743;52.160;20.910;2023-02-28T10:30:41;174.23;;;58.07;;
21170;SDS011;10743;52.160;20.910;2023-02-28T10:33:19;168.40;;;58.60;;
21170;SDS011;10743;52.160;20.910;2023-02-28T10:35:58;162.40;;;55.53;;
21170;SDS011;10743;52.160;20.910;2023-02-28T10:38:28;156.67;;;53.53;;
21170;SDS011;10743;52.160;20.910;2023-02-28T10:41:06;141.23;;;50.70;;
21170;SDS011;10743;52.160;20.910;2023-02-28T10:43:34;138.17;;;50.37;;
21170;SDS011;10743;52.160;20.910;2023-02-28T10:48:37;46.77;;;20.80;;
21170;SDS011;10743;52.160;20.910;2023-02-28T10:51:18;32.57;;;14.60;;
21170;SDS011;10743;52.160;20.910;2023-02-28T10:53:49;30.33;;;9.80;;
21170;SDS011;10743;52.160;20.910;2023-02-28T10:56:28;26.63;;;9.00;;
21170;SDS011;10743;52.160;20.910;2023-02-28T11:01:48;77.73;;;35.10;;
21170;SDS011;10743;52.160;20.910;2023-02-28T11:07:00;40.63;;;11.53;;
21170;SDS011;10743;52.160;20.910;2023-02-28T11:09:54;33.13;;;9.83;;
21170;SDS011;10743;52.160;20.910;2023-02-28T11:18:20;33.87;;;9.37;;
21170;SDS011;10743;52.160;20.910;2023-02-28T11:20:58;29.33;;;9.63;;
21170;SDS011;10743;52.160;20.910;2023-02-28T11:23:29;30.63;;;9.83;;
21170;SDS011;10743;52.160;20.910;2023-02-28T11:26:03;28.67;;;9.37;;
21170;SDS011;10743;52.160;20.910;2023-02-28T11:31:03;26.67;;;8.80;;
21170;SDS011;10743;52.160;20.910;2023-02-28T11:33:44;28.53;;;9.00;;
21170;SDS011;10743;52.160;20.910;2023-02-28T11:36:23;29.93;;;9.77;;
21170;SDS011;10743;52.160;20.910;2023-02-28T11:38:54;35.77;;;9.87;;
21170;SDS011;10743;52.160;20.910;2023-02-28T11:41:38;34.43;;;9.33;;
21170;SDS011;10743;52.160;20.910;2023-02-28T11:44:32;42.93;;;13.40;;
21170;SDS011;10743;52.160;20.910;2023-02-28T11:47:32;33.80;;;11.03;;
21170;SDS011;10743;52.160;20.910;2023-02-28T11:50:16;31.37;;;9.60;;
21170;SDS011;10743;52.160;20.910;2023-02-28T11:52:53;30.97;;;10.13;;
21170;SDS011;10743;52.160;20.910;2023-02-28T11:55:24;26.30;;;9.10;;
21170;SDS011;10743;52.160;20.910;2023-02-28T12:03:58;32.13;;;17.73;;
21170;SDS011;10743;52.160;20.910;2023-02-28T12:09:42;23.20;;;9.33;;
21170;SDS011;10743;52.160;20.910;2023-02-28T12:12:48;28.80;;;9.30;;
21170;SDS011;10743;52.160;20.910;2023-02-28T12:26:47;31.97;;;9.40;;
21170;SDS011;10743;52.160;20.910;2023-02-28T12:29:12;31.10;;;9.17;;
21170;SDS011;10743;52.160;20.910;2023-02-28T12:31:59;30.47;;;8.77;;
21170;SDS011;10743;52.160;20.910;2023-02-28T12:34:34;27.73;;;8.37;;
21170;SDS011;10743;52.160;20.910;2023-02-28T12:37:17;27.03;;;9.00;;
21170;SDS011;10743;52.160;20.910;2023-02-28T12:40:11;36.40;;;9.67;;
21170;SDS011;10743;52.160;20.910;2023-02-28T12:42:49;28.10;;;8.57;;
21170;SDS011;10743;52.160;20.910;2023-02-28T12:45:27;33.90;;;9.90;;
21170;SDS011;10743;52.160;20.910;2023-02-28T12:48:05;32.60;;;9.57;;
21170;SDS011;10743;52.160;20.910;2023-02-28T12:50:37;32.80;;;8.57;;
21170;SDS011;10743;52.160;20.910;2023-02-28T13:10:22;29.17;;;9.10;;
21170;SDS011;10743;52.160;20.910;2023-02-28T13:12:50;29.10;;;9.40;;
21170;SDS011;10743;52.160;20.910;2023-02-28T13:15:22;36.83;;;19.27;;
21170;SDS011;10743;52.160;20.910;2023-02-28T13:17:55;38.10;;;13.23;;
21170;SDS011;10743;52.160;20.910;2023-02-28T13:23:02;33.13;;;9.70;;
21170;SDS011;10743;52.160;20.910;2023-02-28T13:28:11;33.10;;;9.57;;
21170;SDS011;10743;52.160;20.910;2023-02-28T13:36:39;21.63;;;8.97;;
21170;SDS011;10743;52.160;20.910;2023-02-28T13:51:52;135.63;;;56.90;;
21170;SDS011;10743;52.160;20.910;2023-02-28T14:00:07;188.80;;;61.93;;
21170;SDS011;10743;52.160;20.910;2023-02-28T14:06:07;178.87;;;57.07;;
21170;SDS011;10743;52.160;20.910;2023-02-28T14:11:42;173.20;;;57.23;;
21170;SDS011;10743;52.160;20.910;2023-02-28T14:17:03;57.50;;;19.23;;
21170;SDS011;10743;52.160;20.910;2023-02-28T14:19:39;38.40;;;13.53;;
21170;SDS011;10743;52.160;20.910;2023-02-28T14:25:11;44.30;;;12.80;;
21170;SDS011;10743;52.160;20.910;2023-02-28T14:31:05;47.90;;;15.13;;
21170;SDS011;10743;52.160;20.910;2023-02-28T14:36:58;92.27;;;34.00;;
21170;SDS011;10743;52.160;20.910;2023-02-28T14:39:28;80.53;;;34.27;;
21170;SDS011;10743;52.160;20.910;2023-02-28T14:41:59;47.50;;;16.53;;
21170;SDS011;10743;52.160;20.910;2023-02-28T14:44:31;57.70;;;22.27;;
21170;SDS011;10743;52.160;20.910;2023-02-28T14:47:02;57.97;;;21.97;;
21170;SDS011;10743;52.160;20.910;2023-02-28T14:49:36;42.00;;;16.87;;
21170;SDS011;10743;52.160;20.910;2023-02-28T14:54:39;40.53;;;16.37;;
21170;SDS011;10743;52.160;20.910;2023-02-28T14:57:20;41.07;;;14.37;;
21170;SDS011;10743;52.160;20.910;2023-02-28T15:02:33;174.40;;;56.90;;
21170;SDS011;10743;52.160;20.910;2023-02-28T15:05:10;112.83;;;36.80;;
21170;SDS011;10743;52.160;20.910;2023-02-28T15:08:15;89.10;;;27.70;;
21170;SDS011;10743;52.160;20.910;2023-02-28T15:10:49;42.23;;;13.37;;
21170;SDS011;10743;52.160;20.910;2023-02-28T15:13:22;45.00;;;13.50;;
21170;SDS011;10743;52.160;20.910;2023-02-28T15:16:03;41.80;;;15.33;;
21170;SDS011;10743;52.160;20.910;2023-02-28T15:21:26;40.77;;;17.87;;
21170;SDS011;10743;52.160;20.910;2023-02-28T15:23:59;34.20;;;16.20;;
21170;SDS011;10743;52.160;20.910;2023-02-28T15:26:54;40.77;;;14.33;;
21170;SDS011;10743;52.160;20.910;2023-02-28T15:29:25;186.40;;;32.27;;
21170;SDS011;10743;52.160;20.910;2023-02-28T15:31:56;40.90;;;15.03;;
21170;SDS011;10743;52.160;20.910;2023-02-28T15:34:29;37.80;;;12.60;;
21170;SDS011;10743;52.160;20.910;2023-02-28T15:37:29;35.47;;;11.57;;
21170;SDS011;10743;52.160;20.910;2023-02-28T15:43:16;31.57;;;12.23;;
21170;SDS011;10743;52.160;20.910;2023-02-28T15:46:09;44.37;;;20.90;;
21170;SDS011;10743;52.160;20.910;2023-02-28T15:48:53;42.30;;;15.43;;
21170;SDS011;10743;52.160;20.910;2023-02-28T15:51:23;41.77;;;16.10;;
21170;SDS011;10743;52.160;20.910;2023-02-28T15:56:46;41.07;;;13.83;;
21170;SDS011;10743;52.160;20.910;2023-02-28T15:59:19;41.47;;;12.20;;
21170;SDS011;10743;52.160;20.910;2023-02-28T16:07:38;38.10;;;13.27;;
21170;SDS011;10743;52.160;20.910;2023-02-28T16:10:10;34.83;;;13.53;;
21170;SDS011;10743;52.160;20.910;2023-02-28T16:12:40;34.93;;;16.63;;
21170;SDS011;10743;52.160;20.910;2023-02-28T16:15:14;46.73;;;18.20;;
21170;SDS011;10743;52.160;20.910;2023-02-28T16:17:52;41.67;;;16.97;;
21170;SDS011;10743;52.160;20.910;2023-02-28T16:20:25;42.90;;;17.37;;
21170;SDS011;10743;52.160;20.910;2023-02-28T16:22:57;40.43;;;16.13;;
21170;SDS011;10743;52.160;20.910;2023-02-28T16:25:35;35.73;;;14.70;;
21170;SDS011;10743;52.160;20.910;2023-02-28T16:28:12;38.97;;;14.37;;
21170;SDS011;10743;52.160;20.910;2023-02-28T16:30:46;37.03;;;16.10;;
21170;SDS011;10743;52.160;20.910;2023-02-28T16:33:13;38.00;;;15.07;;
21170;SDS011;10743;52.160;20.910;2023-02-28T16:35:40;35.87;;;13.80;;
21170;SDS011;10743;52.160;20.910;2023-02-28T16:38:08;33.53;;;14.57;;
21170;SDS011;10743;52.160;20.910;2023-02-28T16:40:36;37.80;;;17.27;;
21170;SDS011;10743;52.160;20.910;2023-02-28T16:43:25;36.43;;;14.13;;
21170;SDS011;10743;52.160;20.910;2023-02-28T16:45:55;33.40;;;14.27;;
21170;SDS011;10743;52.160;20.910;2023-02-28T16:48:26;46.77;;;17.57;;
21170;SDS011;10743;52.160;20.910;2023-02-28T16:50:54;42.20;;;16.70;;
21170;SDS011;10743;52.160;20.910;2023-02-28T16:53:21;60.50;;;22.97;;
21170;SDS011;10743;52.160;20.910;2023-02-28T16:55:48;58.80;;;24.10;;
21170;SDS011;10743;52.160;20.910;2023-02-28T16:58:17;53.50;;;24.53;;
21170;SDS011;10743;52.160;20.910;2023-02-28T17:00:45;63.73;;;26.17;;
21170;SDS011;10743;52.160;20.910;2023-02-28T17:03:19;59.67;;;25.37;;
21170;SDS011;10743;52.160;20.910;2023-02-28T17:05:59;99.07;;;29.10;;
21170;SDS011;10743;52.160;20.910;2023-02-28T17:08:26;826.47;;;220.97;;
21170;SDS011;10743;52.160;20.910;2023-02-28T17:10:55;1906.33;;;584.57;;
21170;SDS011;10743;52.160;20.910;2023-02-28T17:13:23;1808.73;;;636.47;;
21170;SDS011;10743;52.160;20.910;2023-02-28T17:15:50;959.47;;;332.40;;
21170;SDS011;10743;52.160;20.910;2023-02-28T17:18:18;758.70;;;240.17;;
21170;SDS011;10743;52.160;20.910;2023-02-28T17:20:46;622.17;;;177.40;;
21170;SDS011;10743;52.160;20.910;2023-02-28T17:23:14;276.33;;;75.10;;
21170;SDS011;10743;52.160;20.910;2023-02-28T17:25:42;147.73;;;37.93;;
21170;SDS011;10743;52.160;20.910;2023-02-28T17:28:22;71.70;;;25.03;;
21170;SDS011;10743;52.160;20.910;2023-02-28T17:30:49;59.83;;;23.67;;
21170;SDS011;10743;52.160;20.910;2023-02-28T17:33:17;60.73;;;21.70;;